Latest Weather Observations for West Roebuck

IDW60801

Issued at 12:32 pm WST Thursday 26 May 2016 (issued every 30 minutes, with the page automatically refreshed every 10 minutes)

About weather observations | Map of weather stations | Latest weather observations for WA | Other Formats
Station Details ID: 003096 Name: WEST ROEBUCK Lat: -17.90 Lon: 122.31 Height: 32.0 m
Data from the previous 72 hours. | See also: Recent months at West Roebuck
Date/Time
WST
Temp
°C
App
Temp
°C
Dew
Point
Rel
Hum
%
Delta-T
°C
Wind Press
QNH
hPa
Press
MSL
hPa
Rain
since 9 am
mm
Dir
 
Spd
km/h
Gust
km/h
Spd
kts
Gust
kts
26/12:30pm 30.5 - - - - SW 11 17 6 9 - - 0.0
26/12:00pm 29.4 - - - - SW 13 19 7 10 - - 0.0
26/11:30am 29.3 - - - - SW 13 20 7 11 - - 0.0
26/11:00am 28.5 - - - - SSW 13 20 7 11 - - 0.0
26/10:30am 28.5 - - - - SSW 11 20 6 11 - - 0.0
26/10:00am 27.8 - - - - SW 11 19 6 10 - - 0.0
26/09:30am 27.5 - - - - S 11 17 6 9 - - 0.0
26/09:00am 26.4 - - - - SSE 9 13 5 7 - - 0.0
26/08:30am 24.9 - - - - SSE 7 13 4 7 - - 0.0
26/08:00am 23.1 - - - - SE 9 13 5 7 - - 0.0
26/07:30am 22.1 - - - - E 6 9 3 5 - - 0.0
26/07:00am 21.0 - - - - E 7 11 4 6 - - 0.0
26/06:30am 19.5 - - - - E 9 9 5 5 - - 0.0
26/06:00am 19.0 - - - - E 7 9 4 5 - - 0.0
26/05:30am 19.3 - - - - E 7 9 4 5 - - 0.0
26/05:00am 19.5 - - - - E 9 9 5 5 - - 0.0
26/04:30am 19.9 - - - - ESE 7 9 4 5 - - 0.0
26/04:00am 20.5 - - - - SE 7 7 4 4 - - 0.0
26/03:30am 20.1 - - - - CALM 0 0 0 0 - - 0.0
26/03:00am 20.6 - - - - CALM 0 0 0 0 - - 0.0
26/02:30am 20.9 - - - - CALM 0 0 0 0 - - 0.0
26/02:00am 20.8 - - - - CALM 0 0 0 0 - - 0.0
26/01:30am 20.6 - - - - CALM 0 0 0 0 - - 0.0
26/01:00am 21.2 - - - - CALM 0 0 0 0 - - 0.0
26/12:30am 21.5 - - - - WSW 7 7 4 4 - - 0.0
26/12:00am 21.5 - - - - WSW 7 7 4 4 - - 0.0
 
Date/Time
WST
Temp
°C
App
Temp
°C
Dew
Point
Rel
Hum
%
Delta-T
°C
Wind Press
QNH
hPa
Press
MSL
hPa
Rain
since 9 am
mm
Dir
 
Spd
km/h
Gust
km/h
Spd
kts
Gust
kts
25/11:30pm 21.5 - - - - CALM 0 0 0 0 - - 0.0
25/11:00pm 22.0 - - - - W 6 6 3 3 - - 0.0
25/10:30pm 22.3 - - - - WSW 7 9 4 5 - - 0.0
25/10:00pm 22.0 - - - - WNW 7 7 4 4 - - 0.0
25/09:30pm 21.1 - - - - WNW 9 9 5 5 - - 0.0
25/09:00pm 22.0 - - - - W 7 9 4 5 - - 0.0
25/08:30pm 21.9 - - - - W 9 11 5 6 - - 0.0
25/08:00pm 22.5 - - - - W 9 9 5 5 - - 0.0
25/07:30pm 22.5 - - - - WNW 9 9 5 5 - - 0.0
25/07:00pm 23.0 - - - - WNW 9 9 5 5 - - 0.0
25/06:30pm 23.8 - - - - WNW 9 9 5 5 - - 0.0
25/06:00pm 24.9 - - - - W 9 11 5 6 - - 0.0
25/05:30pm 26.0 - - - - W 9 13 5 7 - - 0.0
25/05:00pm 27.7 - - - - W 13 17 7 9 - - 0.0
25/04:30pm 28.8 - - - - W 15 19 8 10 - - 0.0
25/04:00pm 30.3 - - - - W 13 17 7 9 - - 0.0
25/03:30pm 30.6 - - - - W 13 20 7 11 - - 0.0
25/03:00pm 31.3 - - - - WSW 15 20 8 11 - - 0.0
25/02:30pm 31.9 - - - - WSW 13 19 7 10 - - 0.0
25/02:00pm 32.0 - - - - W 11 20 6 11 - - 0.0
25/01:30pm 33.5 - - - - N 6 9 3 5 - - 0.0
25/01:00pm 33.4 - - - - NW 4 9 2 5 - - 0.0
25/12:30pm 32.7 - - - - ESE 7 13 4 7 - - 0.0
25/12:00pm 31.4 - - - - S 7 13 4 7 - - 0.0
25/11:30am 31.5 - - - - ENE 7 11 4 6 - - 0.0
25/11:00am 30.8 - - - - S 6 11 3 6 - - 0.0
25/10:30am 30.1 - - - - E 9 13 5 7 - - 0.0
25/10:00am 28.6 - - - - SE 9 15 5 8 - - 0.0
25/09:30am 27.8 - - - - SSE 6 9 3 5 - - 0.0
25/09:00am 26.2 - - - - SE 7 11 4 6 - - 0.0
25/08:30am 24.3 - - - - SSE 9 13 5 7 - - 0.0
25/08:00am 22.8 - - - - SE 7 11 4 6 - - 0.0
25/07:30am 21.1 - - - - ESE 7 9 4 5 - - 0.0
25/07:00am 19.7 - - - - E 7 9 4 5 - - 0.0
25/06:30am 18.1 - - - - E 9 11 5 6 - - 0.0
25/06:00am 18.3 - - - - E 7 9 4 5 - - 0.0
25/05:30am 18.5 - - - - E 9 9 5 5 - - 0.0
25/05:00am 19.0 - - - - ENE 9 9 5 5 - - 0.0
25/04:30am 19.2 - - - - E 7 9 4 5 - - 0.0
25/04:00am 19.2 - - - - ESE 7 9 4 5 - - 0.0
25/03:30am 19.5 - - - - E 7 9 4 5 - - 0.0
25/03:00am 19.9 - - - - ESE 7 7 4 4 - - 0.0
25/02:30am 20.5 - - - - S 9 9 5 5 - - 0.0
25/02:00am 20.2 - - - - S 7 9 4 5 - - 0.0
25/01:30am 20.3 - - - - S 7 9 4 5 - - 0.0
25/01:00am 20.1 - - - - S 7 9 4 5 - - 0.0
25/12:30am 20.2 - - - - CALM 0 0 0 0 - - 0.0
25/12:00am 20.1 - - - - CALM 0 0 0 0 - - 0.0
 
Date/Time
WST
Temp
°C
App
Temp
°C
Dew
Point
Rel
Hum
%
Delta-T
°C
Wind Press
QNH
hPa
Press
MSL
hPa
Rain
since 9 am
mm
Dir
 
Spd
km/h
Gust
km/h
Spd
kts
Gust
kts
24/11:30pm 20.2 - - - - CALM 0 0 0 0 - - 0.0
24/11:00pm 20.3 - - - - CALM 0 0 0 0 - - 0.0
24/10:30pm 20.5 - - - - CALM 0 0 0 0 - - 0.0
24/10:00pm 20.1 - - - - CALM 0 0 0 0 - - 0.0
24/09:30pm 19.9 - - - - WSW 9 9 5 5 - - 0.0
24/09:00pm 21.1 - - - - WSW 4 9 2 5 - - 0.0
24/08:30pm 21.5 - - - - CALM 0 0 0 0 - - 0.0
24/08:00pm 22.3 - - - - WSW 7 9 4 5 - - 0.0
24/07:30pm 22.5 - - - - SW 9 11 5 6 - - 0.0
24/07:00pm 22.3 - - - - W 9 9 5 5 - - 0.0
24/06:30pm 23.0 - - - - W 7 9 4 5 - - 0.0
24/06:00pm 24.0 - - - - WSW 9 9 5 5 - - 0.0
24/05:30pm 24.9 - - - - W 9 13 5 7 - - 0.0
24/05:00pm 26.4 - - - - WSW 13 19 7 10 - - 0.0
24/04:30pm 27.5 - - - - WSW 15 20 8 11 - - 0.0
24/04:00pm 28.6 - - - - W 17 24 9 13 - - 0.0
24/03:30pm 29.4 - - - - W 17 26 9 14 - - 0.0
24/03:00pm 30.1 - - - - W 15 20 8 11 - - 0.0
24/02:30pm 30.8 - - - - W 13 19 7 10 - - 0.0
24/02:00pm 30.4 - - - - SW 13 22 7 12 - - 0.0
24/01:30pm 30.3 - - - - WSW 11 20 6 11 - - 0.0
24/01:00pm 30.3 - - - - WSW 11 17 6 9 - - 0.0
24/12:30pm 29.7 - - - - SW 11 19 6 10 - - 0.0
24/12:00pm 29.7 - - - - SSW 9 17 5 9 - - 0.0
24/11:30am 30.4 - - - - WSW 6 13 3 7 - - 0.0
24/11:00am 28.9 - - - - NNW 4 9 2 5 - - 0.0
24/10:30am 28.6 - - - - E 6 11 3 6 - - 0.0
24/10:00am 27.1 - - - - SE 7 11 4 6 - - 0.0
24/09:30am 25.8 - - - - E 9 17 5 9 - - 0.0
24/09:00am 24.9 - - - - ESE 7 13 4 7 - - 0.0
24/08:30am 23.5 - - - - ESE 7 13 4 7 - - 0.0
24/08:00am 21.7 - - - - ESE 11 15 6 8 - - 0.0
24/07:30am 20.3 - - - - ESE 11 15 6 8 - - 0.0
24/07:00am 18.9 - - - - E 9 13 5 7 - - 0.0
24/06:30am 17.8 - - - - E 9 11 5 6 - - 0.0
24/06:00am 17.5 - - - - E 7 9 4 5 - - 0.0
24/05:30am 17.6 - - - - E 7 11 4 6 - - 0.0
24/05:00am 17.6 - - - - E 9 13 5 7 - - 0.0
24/04:30am 17.5 - - - - E 7 9 4 5 - - 0.0
24/04:00am 17.7 - - - - E 7 9 4 5 - - 0.0
24/03:30am 17.8 - - - - E 7 9 4 5 - - 0.0
24/03:00am 18.1 - - - - ESE 9 13 5 7 - - 0.0
24/02:30am 18.4 - - - - E 9 13 5 7 - - 0.0
24/02:00am 18.8 - - - - E 9 11 5 6 - - 0.0
24/01:30am 19.3 - - - - ENE 9 15 5 8 - - 0.0
24/01:00am 19.5 - - - - ENE 11 17 6 9 - - 0.0
24/12:30am 19.3 - - - - ENE 11 13 6 7 - - 0.0
24/12:00am 19.1 - - - - E 9 11 5 6 - - 0.0
 
Date/Time
WST
Temp
°C
App
Temp
°C
Dew
Point
Rel
Hum
%
Delta-T
°C
Wind Press
QNH
hPa
Press
MSL
hPa
Rain
since 9 am
mm
Dir
 
Spd
km/h
Gust
km/h
Spd
kts
Gust
kts
23/11:30pm 19.0 - - - - E 9 13 5 7 - - 0.0
23/11:00pm 19.1 - - - - ESE 9 11 5 6 - - 0.0
23/10:30pm 19.7 - - - - E 9 11 5 6 - - 0.0
23/10:00pm 20.0 - - - - E 9 11 5 6 - - 0.0
23/09:30pm 20.5 - - - - E 9 11 5 6 - - 0.0
23/09:00pm 21.2 - - - - E 9 13 5 7 - - 0.0
23/08:30pm 21.6 - - - - E 11 15 6 8 - - 0.0
23/08:00pm 22.0 - - - - E 11 17 6 9 - - 0.0
23/07:30pm 22.5 - - - - E 15 20 8 11 - - 0.0
23/07:00pm 22.9 - - - - E 15 22 8 12 - - 0.0
23/06:30pm 23.4 - - - - E 15 20 8 11 - - 0.0
23/06:00pm 23.9 - - - - E 17 24 9 13 - - 0.0
23/05:30pm 24.7 - - - - SE 20 32 11 17 - - 0.0
23/05:00pm 25.5 - - - - SE 20 32 11 17 - - 0.0
23/04:30pm 26.5 - - - - SE 24 37 13 20 - - 0.0
23/04:00pm 27.2 - - - - SE 24 33 13 18 - - 0.0
23/03:30pm 28.1 - - - - SE 22 32 12 17 - - 0.0
23/03:00pm 28.4 - - - - SSE 24 35 13 19 - - 0.0
23/02:30pm 28.6 - - - - SSE 24 35 13 19 - - 0.0
23/02:00pm 29.1 - - - - SE 24 41 13 22 - - 0.0
23/01:30pm 29.6 - - - - SE 24 37 13 20 - - 0.0
23/01:00pm 29.0 - - - - SE 24 33 13 18 - - 0.0

Other Formats:

Comma delimited format used in spreadsheet applications
http://www.bom.gov.au/fwo/IDW60801/IDW60801.95204.axf

JavaScript Object Notation format (JSON) in row-major order
http://www.bom.gov.au/fwo/IDW60801/IDW60801.95204.json